createdAt,value
2019-05-15T00:00:38.432Z,70.45
2019-05-15T00:01:40.684Z,70.45
2019-05-15T00:02:38.675Z,70.65
2019-05-15T00:03:39.212Z,70.86
2019-05-15T00:04:38.365Z,70.86
2019-05-15T00:05:39.026Z,70.86
2019-05-15T00:06:36.292Z,70.34
2019-05-15T00:07:38.808Z,70.34
2019-05-15T00:08:38.450Z,70.68
2019-05-15T00:09:39.230Z,71.20
2019-05-15T00:10:39.016Z,70.89
2019-05-15T00:11:38.771Z,71.92
2019-05-15T00:12:36.225Z,72.13
2019-05-15T00:13:38.643Z,72.67
2019-05-15T00:14:38.714Z,72.03
2019-05-15T00:15:36.193Z,72.03
2019-05-15T00:16:38.415Z,72.37
2019-05-15T00:17:36.169Z,72.44
2019-05-15T00:18:36.157Z,72.13
2019-05-15T00:19:36.150Z,71.82
2019-05-15T00:20:36.146Z,72.06
2019-05-15T00:21:38.188Z,71.55
2019-05-15T00:22:38.709Z,72.33
2019-05-15T00:23:38.549Z,72.06
2019-05-15T00:24:38.177Z,72.37
2019-05-15T00:25:36.080Z,72.67
2019-05-15T00:26:38.371Z,72.37
2019-05-15T00:27:38.317Z,72.47
2019-05-15T00:28:36.054Z,72.61
2019-05-15T00:29:38.206Z,72.40
2019-05-15T00:30:38.482Z,71.78
2019-05-15T00:31:38.650Z,72.58
2019-05-15T00:32:35.999Z,73.02
2019-05-15T00:33:36.007Z,72.27
2019-05-15T00:34:37.907Z,71.89
2019-05-15T00:35:35.970Z,72.71
2019-05-15T00:36:38.090Z,72.40
2019-05-15T00:37:38.413Z,73.95
2019-05-15T00:38:35.942Z,73.74
2019-05-15T00:39:35.930Z,73.12
2019-05-15T00:40:38.816Z,73.64
2019-05-15T00:41:48.341Z,73.85
2019-05-15T00:42:38.340Z,73.85
2019-05-15T00:43:38.206Z,73.95
2019-05-15T00:44:35.907Z,74.29
2019-05-15T00:45:38.303Z,73.98
2019-05-15T00:46:38.280Z,74.60
2019-05-15T00:47:35.830Z,75.01
2019-05-15T00:48:35.819Z,75.43
2019-05-15T00:49:38.082Z,74.81
2019-05-15T00:50:35.840Z,74.81
2019-05-15T00:51:35.789Z,75.87
2019-05-15T00:52:35.781Z,75.95
2019-05-15T00:53:35.766Z,75.77
2019-05-15T00:54:35.751Z,76.29
2019-05-15T00:55:37.869Z,76.29
2019-05-15T00:56:35.778Z,76.18
2019-05-15T00:57:35.723Z,76.08
2019-05-15T00:58:35.746Z,75.87
2019-05-15T00:59:35.711Z,75.87
2019-05-15T01:00:38.041Z,75.46
2019-05-15T01:01:38.016Z,75.98
2019-05-15T01:02:35.701Z,76.18
2019-05-15T01:03:35.654Z,76.29
2019-05-15T01:04:35.640Z,76.18
2019-05-15T01:05:35.637Z,76.18
2019-05-15T01:06:35.622Z,74.84
2019-05-15T01:07:35.615Z,75.87
2019-05-15T01:08:35.638Z,75.98
2019-05-15T01:09:35.589Z,75.36
2019-05-15T01:10:38.321Z,76.18
2019-05-15T01:11:37.960Z,76.64
2019-05-15T03:18:09.857Z,81.26
2019-05-15T03:18:31.712Z,80.33
2019-05-15T03:19:31.702Z,80.36
2019-05-15T03:20:31.694Z,80.57
2019-05-15T03:21:31.710Z,81.09
2019-05-15T03:22:31.671Z,80.99
2019-05-15T03:23:31.658Z,81.82
2019-05-15T03:24:31.650Z,81.61
2019-05-15T03:25:31.677Z,80.88
2019-05-15T03:26:31.633Z,81.40
2019-05-15T03:27:34.762Z,81.71
2019-05-15T03:28:31.607Z,81.61
2019-05-15T03:29:31.601Z,81.75
2019-05-15T03:30:35.166Z,81.13
2019-05-15T03:31:50.864Z,81.54
2019-05-15T03:32:42.526Z,81.23
2019-05-15T03:33:36.554Z,81.44
2019-05-15T03:34:38.127Z,81.13
2019-05-15T03:35:33.421Z,81.65
2019-05-15T03:36:32.259Z,81.85
2019-05-15T03:37:33.507Z,81.44
2019-05-15T03:38:31.536Z,81.75
2019-05-15T03:39:31.499Z,81.85
2019-05-15T03:40:31.468Z,82.68
2019-05-15T03:41:31.466Z,82.17
2019-05-15T03:42:31.484Z,81.65
2019-05-15T03:43:31.464Z,81.75
2019-05-15T03:44:31.439Z,81.44
2019-05-15T03:45:31.412Z,81.75
2019-05-15T03:46:31.404Z,81.44
2019-05-15T03:47:31.441Z,81.23
2019-05-15T03:48:31.386Z,81.44
2019-05-15T03:49:31.368Z,81.85
2019-05-15T03:50:31.370Z,81.44
2019-05-15T03:51:31.363Z,81.85
2019-05-15T03:52:31.337Z,81.13
2019-05-15T03:53:31.355Z,81.85
2019-05-15T03:54:31.316Z,80.92
2019-05-15T03:55:31.301Z,81.44
2019-05-15T03:56:31.332Z,80.61
2019-05-15T03:57:31.279Z,81.54
2019-05-15T03:58:31.297Z,80.61
2019-05-15T03:59:31.293Z,81.13
2019-05-15T04:00:31.248Z,81.02
2019-05-15T04:01:38.537Z,80.71
2019-05-15T04:02:32.224Z,81.30
2019-05-15T04:03:31.229Z,81.23
2019-05-15T04:04:31.234Z,81.30
2019-05-15T04:05:31.223Z,79.85
2019-05-15T04:06:31.187Z,79.74
2019-05-15T04:07:31.214Z,79.54
2019-05-15T04:08:31.156Z,80.16
2019-05-15T04:09:31.179Z,80.68
2019-05-15T04:10:31.148Z,79.95
2019-05-15T04:11:31.165Z,79.85
2019-05-15T04:12:31.113Z,79.74
2019-05-15T04:13:31.142Z,79.74
2019-05-15T04:14:31.115Z,80.36
2019-05-15T04:15:31.080Z,80.36
2019-05-15T04:16:31.097Z,81.09
2019-05-15T04:17:31.062Z,81.82
2019-05-15T04:18:31.082Z,81.40
2019-05-15T04:19:31.034Z,81.82
2019-05-15T04:20:31.066Z,81.61
2019-05-15T04:21:31.060Z,81.61
2019-05-15T04:22:31.020Z,80.78
2019-05-15T04:23:31.023Z,81.82
2019-05-15T04:24:30.984Z,81.61
2019-05-15T04:25:30.965Z,81.20
2019-05-15T04:26:30.972Z,81.61
2019-05-15T04:27:30.976Z,81.40
2019-05-15T04:28:30.936Z,81.71
2019-05-15T04:29:30.928Z,81.26
2019-05-15T04:30:31.095Z,81.57
2019-05-15T04:31:49.806Z,80.43
2019-05-15T04:32:31.925Z,80.36
2019-05-15T04:33:30.896Z,80.33
2019-05-15T04:34:30.869Z,80.12
2019-05-15T04:35:30.862Z,80.68
2019-05-15T04:36:30.876Z,80.12
2019-05-15T04:37:30.863Z,80.74
2019-05-15T04:38:30.823Z,81.16
2019-05-15T04:39:30.871Z,80.54
2019-05-15T04:40:30.805Z,79.98
2019-05-15T04:41:30.795Z,80.12
2019-05-15T04:42:30.787Z,79.81
2019-05-15T04:43:39.676Z,79.77
2019-05-15T04:44:31.787Z,79.77
2019-05-15T04:45:34.780Z,79.77
2019-05-15T04:46:30.738Z,79.22
2019-05-15T04:47:30.724Z,78.70
2019-05-15T04:48:30.761Z,77.67
2019-05-15T04:49:30.735Z,77.39
2019-05-15T04:50:30.689Z,77.50
2019-05-15T04:51:30.775Z,78.19
2019-05-15T04:52:30.885Z,78.60
2019-05-15T04:53:33.107Z,77.98
2019-05-15T04:54:30.646Z,78.29
2019-05-15T04:55:30.673Z,78.08
2019-05-15T04:56:30.665Z,78.50
2019-05-15T04:57:34.046Z,78.25
2019-05-15T04:58:30.611Z,77.53
2019-05-15T04:59:30.630Z,77.84
2019-05-15T05:00:30.578Z,77.29
2019-05-15T05:01:30.606Z,77.60
2019-05-15T05:02:32.170Z,77.19
2019-05-15T05:03:34.136Z,76.01
2019-05-15T05:04:30.546Z,76.01
2019-05-15T05:05:30.558Z,76.01
2019-05-15T05:06:30.561Z,75.49
2019-05-15T05:07:30.920Z,74.88
2019-05-15T05:08:30.523Z,75.49
2019-05-15T05:09:30.482Z,76.22
2019-05-15T05:10:30.525Z,75.26
2019-05-15T05:11:30.462Z,74.88
2019-05-15T05:12:30.497Z,74.88
2019-05-15T05:13:30.442Z,74.74
2019-05-15T05:14:30.477Z,74.88
2019-05-15T05:15:30.433Z,75.29
2019-05-15T05:16:30.515Z,75.15
2019-05-15T05:17:30.435Z,75.15
2019-05-15T05:18:30.519Z,75.26
2019-05-15T05:19:30.406Z,74.74
2019-05-15T05:20:30.398Z,75.12
2019-05-15T05:21:30.388Z,74.29
2019-05-15T05:22:30.368Z,73.39
2019-05-15T05:23:30.392Z,73.77
2019-05-15T05:24:30.363Z,73.88
2019-05-15T05:25:30.308Z,73.68
2019-05-15T05:26:30.333Z,73.47
2019-05-15T05:27:30.312Z,72.74
2019-05-15T05:28:30.308Z,72.54
2019-05-15T05:29:30.314Z,72.23
2019-05-15T05:30:30.247Z,72.54
2019-05-15T05:31:30.254Z,72.19
2019-05-15T05:32:34.852Z,72.61
2019-05-15T05:33:31.210Z,72.71
2019-05-15T05:34:30.211Z,71.13
2019-05-15T05:35:30.247Z,70.86
2019-05-15T05:36:30.193Z,72.58
2019-05-15T05:37:30.198Z,71.13
2019-05-15T05:38:30.164Z,70.72
2019-05-15T05:39:32.439Z,71.00
2019-05-15T05:40:31.631Z,71.30
2019-05-15T05:41:32.129Z,71.00
2019-05-15T05:42:32.766Z,70.07
2019-05-15T05:43:30.176Z,69.55
2019-05-15T05:44:30.111Z,69.96
2019-05-15T05:45:30.100Z,69.52
2019-05-15T05:46:30.078Z,69.42
2019-05-15T05:47:30.117Z,69.45
2019-05-15T05:48:30.060Z,69.52
2019-05-15T05:49:30.081Z,69.31
2019-05-15T05:50:30.052Z,69.62
2019-05-15T05:51:30.100Z,69.28
2019-05-15T05:52:30.049Z,69.73
2019-05-15T05:53:30.024Z,68.46
2019-05-15T05:54:29.989Z,68.05
2019-05-15T05:55:30.004Z,68.46
2019-05-15T05:56:29.973Z,68.35
2019-05-15T05:57:29.998Z,68.15
2019-05-15T05:58:29.985Z,67.02
2019-05-15T05:59:29.950Z,66.19
2019-05-15T06:00:29.917Z,66.19
2019-05-15T06:01:29.930Z,65.78
2019-05-15T06:02:43.821Z,65.86
2019-05-15T06:03:30.968Z,66.06
2019-05-15T06:04:30.021Z,65.55
2019-05-15T06:05:29.914Z,65.86
2019-05-15T06:06:29.987Z,66.06
2019-05-15T06:07:29.894Z,66.06
2019-05-15T06:08:29.896Z,66.67
2019-05-15T06:09:29.905Z,66.03
2019-05-15T06:10:29.877Z,66.75
2019-05-15T06:11:29.864Z,66.34
2019-05-15T06:12:29.822Z,66.13
2019-05-15T06:13:29.801Z,66.34
2019-05-15T06:14:29.920Z,65.69
2019-05-15T06:15:29.939Z,65.69
2019-05-15T06:16:29.807Z,66.10
2019-05-15T06:17:29.912Z,65.80
2019-05-15T06:18:29.777Z,65.59
2019-05-15T06:19:31.477Z,65.28
2019-05-15T06:20:29.699Z,64.56
2019-05-15T06:21:29.703Z,65.59
2019-05-15T06:22:29.680Z,64.66
2019-05-15T06:23:34.558Z,65.45
2019-05-15T06:24:30.765Z,64.43
2019-05-15T06:25:30.635Z,64.43
2019-05-15T06:26:29.716Z,65.56
2019-05-15T06:27:29.628Z,64.32
2019-05-15T06:28:29.751Z,63.89
2019-05-15T06:29:29.636Z,64.40
2019-05-15T06:30:30.817Z,64.19
2019-05-15T06:31:29.608Z,64.09
2019-05-15T06:32:29.567Z,64.19
2019-05-15T06:33:29.592Z,64.50
2019-05-15T06:34:29.546Z,63.06
2019-05-15T06:35:31.167Z,63.06
2019-05-15T06:36:29.528Z,63.06
2019-05-15T06:37:29.530Z,62.83
2019-05-15T06:38:30.981Z,62.83
2019-05-15T06:39:29.485Z,62.52
2019-05-15T06:40:29.518Z,62.21
2019-05-15T06:41:29.486Z,62.83
2019-05-15T06:42:29.461Z,63.54
2019-05-15T06:43:29.450Z,63.31
2019-05-15T06:44:29.435Z,62.70
2019-05-15T06:45:29.482Z,62.59
2019-05-15T06:46:29.434Z,63.62
2019-05-15T06:47:29.411Z,62.80
2019-05-15T06:48:29.445Z,62.77
2019-05-15T06:49:29.395Z,61.44
2019-05-15T06:50:29.372Z,62.15
2019-05-15T06:51:29.409Z,61.41
2019-05-15T06:52:29.351Z,62.05
2019-05-15T06:53:29.332Z,61.30
2019-05-15T06:54:29.367Z,59.28
2019-05-15T06:55:29.347Z,55.54
2019-05-15T06:56:29.304Z,55.13
2019-05-15T06:57:29.325Z,54.21
2019-05-15T06:58:29.328Z,53.36
2019-05-15T06:59:29.291Z,53.33
2019-05-15T07:00:29.313Z,52.92
2019-05-15T07:01:29.574Z,52.92
2019-05-15T07:02:29.247Z,53.62
2019-05-15T07:03:29.680Z,53.92
2019-05-15T07:04:29.247Z,53.41
2019-05-15T07:05:29.548Z,53.62
2019-05-15T07:06:29.219Z,51.45
2019-05-15T07:07:29.184Z,50.12
2019-05-15T07:08:29.205Z,47.48
2019-05-15T07:09:29.171Z,46.84
2019-05-15T07:10:29.149Z,47.15
2019-05-15T07:11:29.173Z,47.58
2019-05-15T07:12:29.128Z,47.66
2019-05-15T07:13:29.250Z,47.35
2019-05-15T07:14:29.148Z,47.05
2019-05-15T07:15:29.096Z,47.33
2019-05-15T07:16:29.102Z,46.12
2019-05-15T07:17:29.083Z,47.74
2019-05-15T07:18:29.115Z,47.23
2019-05-15T07:19:29.053Z,46.82
2019-05-15T07:20:29.039Z,45.80
2019-05-15T07:21:29.023Z,45.67
2019-05-15T07:22:29.112Z,45.88
2019-05-15T07:23:30.761Z,45.67
2019-05-15T07:24:29.097Z,45.98
2019-05-15T07:25:29.443Z,46.39
2019-05-15T07:26:29.175Z,45.78
2019-05-15T07:27:28.974Z,45.45
2019-05-15T07:28:29.015Z,45.04
2019-05-15T07:29:29.229Z,45.14
2019-05-15T07:30:29.008Z,43.69
2019-05-15T07:31:29.011Z,43.79
2019-05-15T07:32:28.913Z,44.71
2019-05-15T07:33:39.414Z,44.12
2019-05-15T07:34:29.966Z,44.73
2019-05-15T07:35:28.916Z,45.76
2019-05-15T07:36:28.932Z,44.22
2019-05-15T07:37:29.060Z,43.51
2019-05-15T07:38:28.861Z,43.71
2019-05-15T07:39:29.013Z,43.00
2019-05-15T07:40:29.839Z,43.08
2019-05-15T07:41:28.815Z,43.29
2019-05-15T07:42:29.218Z,42.29
2019-05-15T07:43:28.815Z,41.67
2019-05-15T07:44:28.784Z,41.88
2019-05-15T07:45:28.792Z,41.88
2019-05-15T07:46:29.025Z,41.56
2019-05-15T07:47:29.338Z,41.88
2019-05-15T07:48:29.260Z,41.56
2019-05-15T07:49:28.968Z,42.29
2019-05-15T07:50:29.932Z,42.91
2019-05-15T07:51:28.862Z,42.08
2019-05-15T07:52:28.940Z,41.89
2019-05-15T07:53:29.004Z,41.18
2019-05-15T07:54:28.943Z,41.69
2019-05-15T07:55:29.742Z,41.97
2019-05-15T07:56:29.038Z,41.77
2019-05-15T07:57:29.878Z,41.56
2019-05-15T07:58:28.630Z,40.83
2019-05-15T07:59:28.604Z,40.22
2019-05-15T08:00:28.922Z,38.89
2019-05-15T08:01:29.070Z,40.12
2019-05-15T08:02:28.665Z,38.69
2019-05-15T08:03:29.238Z,37.46
2019-05-15T08:04:30.673Z,38.18
2019-05-15T08:05:28.627Z,38.59
2019-05-15T08:06:29.041Z,39.51
2019-05-15T08:07:28.532Z,38.59
2019-05-15T08:08:29.122Z,39.08
2019-05-15T08:09:28.529Z,38.37
2019-05-15T08:10:28.564Z,38.46
2019-05-15T08:11:28.718Z,38.46
2019-05-15T08:12:28.590Z,38.37
2019-05-15T08:13:28.960Z,38.89
2019-05-15T08:14:29.169Z,38.69
2019-05-15T08:15:28.682Z,38.98
2019-05-15T08:16:28.837Z,38.78
2019-05-15T08:17:29.028Z,38.76
2019-05-15T08:18:28.703Z,38.57
2019-05-15T08:19:28.951Z,39.69
2019-05-15T08:20:28.941Z,38.55
2019-05-15T08:21:29.238Z,38.14
2019-05-15T08:22:28.577Z,38.76
2019-05-15T08:23:28.578Z,38.35
2019-05-15T08:24:29.877Z,38.45
2019-05-15T08:25:35.047Z,39.98
2019-05-15T08:26:29.365Z,40.28
2019-05-15T08:27:29.931Z,39.87
2019-05-15T08:28:28.766Z,40.39
2019-05-15T08:29:28.881Z,39.98
2019-05-15T08:30:28.900Z,40.19
2019-05-15T08:31:28.922Z,40.19
2019-05-15T08:32:28.320Z,40.28
2019-05-15T08:33:28.260Z,39.37
2019-05-15T08:34:28.335Z,39.26
2019-05-15T08:35:29.163Z,39.06
2019-05-15T08:36:31.144Z,38.96
2019-05-15T08:37:29.294Z,39.96
2019-05-15T08:38:28.934Z,40.69
2019-05-15T08:39:28.539Z,40.49
2019-05-15T08:40:28.502Z,39.04
2019-05-15T08:41:29.561Z,38.55
2019-05-15T08:42:28.244Z,40.19
2019-05-15T08:43:30.910Z,39.98
2019-05-15T08:44:29.290Z,40.39
2019-05-15T08:45:28.357Z,40.19
2019-05-15T08:46:28.137Z,40.49
2019-05-15T08:47:29.718Z,40.26
2019-05-15T08:48:28.069Z,40.26
2019-05-15T08:49:28.442Z,40.67
2019-05-15T08:50:28.771Z,40.37
2019-05-15T08:51:28.481Z,40.55
2019-05-15T08:52:28.370Z,40.96
2019-05-15T08:53:28.534Z,39.74
2019-05-15T08:54:29.071Z,39.42
2019-05-15T08:55:28.194Z,39.42
2019-05-15T08:56:28.975Z,38.29
2019-05-15T08:57:29.048Z,38.51
2019-05-15T08:58:29.047Z,38.21
2019-05-15T08:59:29.438Z,39.03
2019-05-15T09:00:29.393Z,39.03
2019-05-15T09:01:28.754Z,39.03
2019-05-15T09:02:28.766Z,39.96
2019-05-15T09:03:28.660Z,39.13
2019-05-15T09:04:34.484Z,38.51
2019-05-15T09:05:28.894Z,37.49
2019-05-15T09:06:29.182Z,37.40
2019-05-15T09:07:28.779Z,38.11
2019-05-15T09:08:29.244Z,38.51
2019-05-15T09:09:28.764Z,38.42
2019-05-15T09:10:28.770Z,37.68
2019-05-15T09:11:28.358Z,34.73
2019-05-15T09:12:29.419Z,34.83
2019-05-15T09:13:29.317Z,34.83
2019-05-15T09:14:28.607Z,34.71
2019-05-15T09:15:29.373Z,34.70
2019-05-15T09:16:28.115Z,34.49
2019-05-15T09:17:28.558Z,34.59
2019-05-15T09:18:28.346Z,34.39
2019-05-15T09:19:28.169Z,34.29
2019-05-15T09:20:28.782Z,32.66
2019-05-15T09:21:28.360Z,33.37
2019-05-15T09:22:29.189Z,33.26
2019-05-15T09:23:28.945Z,29.19
2019-05-15T09:24:28.618Z,29.60
2019-05-15T09:25:28.775Z,29.90
2019-05-15T09:26:28.360Z,29.80
2019-05-15T09:27:27.922Z,29.79
2019-05-15T09:28:29.645Z,28.55
2019-05-15T09:29:28.560Z,28.96
2019-05-15T09:30:28.624Z,27.85
2019-05-15T09:31:28.468Z,27.65
2019-05-15T09:32:28.491Z,27.75
2019-05-15T09:33:28.594Z,26.14
2019-05-15T09:34:44.962Z,27.04
2019-05-15T09:35:28.601Z,27.74
2019-05-15T09:36:28.841Z,25.72
2019-05-15T09:37:28.718Z,28.56
2019-05-15T09:38:28.993Z,26.93
2019-05-15T09:39:28.685Z,29.06
2019-05-15T09:40:42.507Z,28.86
2019-05-15T09:41:28.760Z,27.64
2019-05-15T09:42:28.657Z,27.23
2019-05-15T09:43:28.571Z,27.42
2019-05-15T09:44:28.349Z,27.20
2019-05-15T09:45:28.624Z,28.02
2019-05-15T09:46:29.173Z,27.31
2019-05-15T09:47:29.662Z,26.70
2019-05-15T09:48:28.659Z,26.80
2019-05-15T09:49:28.555Z,27.10
2019-05-15T09:50:28.206Z,26.80
2019-05-15T09:51:29.034Z,26.50
2019-05-15T09:52:29.877Z,24.49
2019-05-15T09:53:28.510Z,24.68
2019-05-15T09:54:29.157Z,25.39
2019-05-15T09:55:28.503Z,26.10
2019-05-15T09:56:29.065Z,25.58
2019-05-15T09:57:30.242Z,25.16
2019-05-15T09:58:27.262Z,25.16
2019-05-15T09:59:28.172Z,25.26
2019-05-15T10:00:29.259Z,23.94
2019-05-15T10:01:28.515Z,24.96
2019-05-15T10:02:28.441Z,24.76
2019-05-15T10:03:28.187Z,25.67
2019-05-15T10:04:28.648Z,25.45
2019-05-15T10:05:28.094Z,23.04
2019-05-15T10:06:28.636Z,23.85
2019-05-15T10:07:28.526Z,24.25
2019-05-15T10:08:29.291Z,23.64
2019-05-15T10:09:28.455Z,23.83
2019-05-15T10:10:28.448Z,25.05
2019-05-15T10:11:28.931Z,24.04
2019-05-15T10:12:34.508Z,23.61
2019-05-15T10:13:28.955Z,23.11
2019-05-15T10:14:29.445Z,23.01
2019-05-15T10:15:27.073Z,23.52
2019-05-15T10:16:27.102Z,24.22
2019-05-15T10:17:29.106Z,23.72
2019-05-15T10:18:28.218Z,23.21
2019-05-15T10:19:29.042Z,23.73
2019-05-15T10:20:29.122Z,23.61
2019-05-15T10:21:32.165Z,24.63
2019-05-15T10:22:28.343Z,24.82
2019-05-15T10:23:29.213Z,24.71
2019-05-15T10:24:28.061Z,25.94
2019-05-15T10:25:28.158Z,25.33
2019-05-15T10:26:28.546Z,25.21
2019-05-15T10:27:28.741Z,25.12
2019-05-15T10:28:29.356Z,24.81
2019-05-15T10:29:28.174Z,24.41
2019-05-15T10:30:28.390Z,24.20
2019-05-15T10:31:28.280Z,24.00
2019-05-15T10:32:29.006Z,23.09
2019-05-15T10:33:29.435Z,23.00
2019-05-15T10:34:28.914Z,24.02
2019-05-15T10:35:29.227Z,24.22
2019-05-15T10:36:28.113Z,23.93
2019-05-15T10:37:28.562Z,24.33
2019-05-15T10:38:28.481Z,24.04
2019-05-15T10:39:28.826Z,23.73
2019-05-15T10:40:29.615Z,25.44
2019-05-15T10:41:28.183Z,24.73
2019-05-15T10:42:28.938Z,25.33
2019-05-15T10:43:28.793Z,25.94
2019-05-15T10:44:28.559Z,26.73
2019-05-15T10:45:29.358Z,26.23
2019-05-15T10:46:26.785Z,25.21
2019-05-15T10:47:28.973Z,25.13
2019-05-15T10:48:29.222Z,26.34
2019-05-15T10:49:28.178Z,25.53
2019-05-15T10:50:28.381Z,26.24
2019-05-15T10:51:28.594Z,26.04
2019-05-15T10:52:28.707Z,26.54
2019-05-15T10:53:29.523Z,27.04
2019-05-15T10:54:29.086Z,27.43
2019-05-15T10:55:28.780Z,25.70
2019-05-15T10:56:28.997Z,26.32
2019-05-15T10:57:28.046Z,27.24
2019-05-15T10:58:28.670Z,27.55
2019-05-15T10:59:27.669Z,26.72
2019-05-15T11:00:28.616Z,25.51
2019-05-15T11:01:26.592Z,24.79
2019-05-15T11:02:28.850Z,25.31
2019-05-15T11:03:26.544Z,25.92
2019-05-15T11:04:28.682Z,26.21
2019-05-15T11:05:38.405Z,25.49
2019-05-15T11:06:28.855Z,25.59
2019-05-15T11:07:28.435Z,25.99
2019-05-15T11:08:28.961Z,26.18
2019-05-15T11:09:28.490Z,25.17
2019-05-15T11:10:28.825Z,25.36
2019-05-15T11:11:26.455Z,24.74
2019-05-15T11:12:29.014Z,25.03
2019-05-15T11:13:28.673Z,24.64
2019-05-15T11:14:28.643Z,24.84
2019-05-15T11:15:28.941Z,26.06
2019-05-15T11:16:28.213Z,25.76
2019-05-15T11:17:28.721Z,27.08
2019-05-15T11:18:28.142Z,26.77
2019-05-15T11:19:35.484Z,25.78
2019-05-15T11:20:27.351Z,26.79
2019-05-15T11:21:27.272Z,26.70
2019-05-15T11:22:26.320Z,27.51
2019-05-15T11:23:26.297Z,28.11
2019-05-15T11:24:28.291Z,28.22
2019-05-15T11:25:29.933Z,27.00
2019-05-15T11:26:33.132Z,28.11
2019-05-15T11:27:27.933Z,27.62
2019-05-15T11:28:31.582Z,28.10
2019-05-15T11:29:27.251Z,27.80
2019-05-15T11:30:26.258Z,28.10
2019-05-15T11:31:28.475Z,27.38
2019-05-15T11:32:26.206Z,27.38
2019-05-15T11:33:29.022Z,27.78
2019-05-15T11:34:28.793Z,28.09
2019-05-15T11:35:28.436Z,27.58
2019-05-15T11:36:28.575Z,27.38
2019-05-15T11:37:28.272Z,27.28
2019-05-15T11:38:28.699Z,27.59
2019-05-15T11:39:28.651Z,27.50
2019-05-15T11:40:28.222Z,27.89
2019-05-15T11:41:29.179Z,26.99
2019-05-15T11:42:28.191Z,26.79
2019-05-15T11:43:28.903Z,27.39
2019-05-15T11:44:28.113Z,26.38
2019-05-15T11:45:26.121Z,27.59
2019-05-15T11:46:29.027Z,27.29
2019-05-15T11:47:27.870Z,26.87
2019-05-15T11:48:26.019Z,26.65
2019-05-15T11:49:26.015Z,26.14
2019-05-15T11:50:29.101Z,25.54
2019-05-15T11:51:26.026Z,26.56
2019-05-15T11:52:29.168Z,26.56
2019-05-15T11:53:28.226Z,26.15
2019-05-15T11:54:28.310Z,26.86
2019-05-15T11:55:25.949Z,25.84
2019-05-15T11:56:25.930Z,25.32
2019-05-15T11:57:39.245Z,25.02
2019-05-15T11:58:28.202Z,26.22
2019-05-15T11:59:25.939Z,24.41
2019-05-15T12:00:29.509Z,25.02
2019-05-15T12:01:25.891Z,24.52
2019-05-15T12:02:25.899Z,24.51
2019-05-15T12:03:25.932Z,23.77
2019-05-15T12:04:31.206Z,24.38
2019-05-15T12:05:28.781Z,23.77
2019-05-15T12:06:25.853Z,23.47
2019-05-15T12:07:25.835Z,22.97
2019-05-15T12:08:25.868Z,23.68
2019-05-15T12:09:28.156Z,24.37
2019-05-15T12:10:25.854Z,25.07
2019-05-15T12:11:33.374Z,24.87
2019-05-15T12:12:31.269Z,25.09
2019-05-15T12:13:27.976Z,26.10
2019-05-15T12:14:25.844Z,26.61
2019-05-15T12:15:27.985Z,24.99
2019-05-15T12:16:28.786Z,25.50
2019-05-15T12:17:28.282Z,25.50
2019-05-15T12:18:27.934Z,26.12
2019-05-15T12:19:28.961Z,25.51
2019-05-15T12:20:28.367Z,26.64
2019-05-15T12:21:28.403Z,25.84
2019-05-15T12:22:25.664Z,26.85
2019-05-15T12:23:25.675Z,27.25
2019-05-15T12:24:32.719Z,27.33
2019-05-15T12:25:31.025Z,26.51
2019-05-15T12:26:29.221Z,25.10
2019-05-15T12:27:28.152Z,25.59
2019-05-15T12:28:25.587Z,25.89
2019-05-15T12:29:28.379Z,25.69
2019-05-15T12:30:25.557Z,23.88
2019-05-15T12:31:25.539Z,22.96
2019-05-15T12:32:31.435Z,22.75
2019-05-15T12:33:28.894Z,22.83
2019-05-15T12:34:25.550Z,22.22
2019-05-15T12:35:25.521Z,22.22
2019-05-15T12:36:47.268Z,23.13
2019-05-15T12:37:28.514Z,23.52
2019-05-15T12:38:25.465Z,22.72
2019-05-15T12:39:29.505Z,22.12
2019-05-15T12:59:42.435Z,20.89
2019-05-15T13:00:26.227Z,20.78
2019-05-15T13:01:25.220Z,21.47
2019-05-15T13:02:25.231Z,21.15
2019-05-15T13:03:25.208Z,21.86
2019-05-15T13:04:25.220Z,21.17
2019-05-15T13:05:25.174Z,21.19
2019-05-15T13:06:25.175Z,21.80
2019-05-15T13:07:25.146Z,21.22
2019-05-15T13:08:25.141Z,21.82
2019-05-15T13:09:25.113Z,22.33
2019-05-15T13:10:25.158Z,21.82
2019-05-15T13:11:25.100Z,21.92
2019-05-15T13:12:25.093Z,20.90
2019-05-15T13:13:25.085Z,21.09
2019-05-15T13:14:25.075Z,21.79
2019-05-15T13:15:25.078Z,20.25
2019-05-15T13:16:25.066Z,20.14
2019-05-15T13:17:25.039Z,20.45
2019-05-15T13:18:25.017Z,20.75
2019-05-15T13:19:25.058Z,20.67
2019-05-15T13:20:24.994Z,20.27
2019-05-15T13:21:24.984Z,20.56
2019-05-15T13:22:24.980Z,20.57
2019-05-15T13:23:24.994Z,20.56
2019-05-15T13:24:24.956Z,19.46
2019-05-15T13:25:24.956Z,18.95
2019-05-15T13:26:27.058Z,19.95
2019-05-15T13:27:24.933Z,19.96
2019-05-15T13:28:24.899Z,20.04
2019-05-15T13:29:24.909Z,20.01
2019-05-15T13:30:24.888Z,18.98
2019-05-15T13:31:24.921Z,17.94
2019-05-15T13:32:24.878Z,17.63
2019-05-15T13:33:24.853Z,16.91
2019-05-15T13:34:24.843Z,17.20
2019-05-15T13:35:24.835Z,16.81
2019-05-15T13:36:24.820Z,16.61
2019-05-15T13:37:27.262Z,16.10
2019-05-15T13:38:25.798Z,16.09
2019-05-15T13:39:24.780Z,15.99
2019-05-15T13:40:35.013Z,15.68
2019-05-15T13:41:28.010Z,15.37
2019-05-15T13:42:24.754Z,15.15
2019-05-15T13:43:24.773Z,14.34
2019-05-15T13:44:24.742Z,14.84
2019-05-15T13:45:24.726Z,15.97
2019-05-15T13:46:24.730Z,15.88
2019-05-15T13:47:24.694Z,15.95
2019-05-15T13:48:24.897Z,15.67
2019-05-15T13:49:24.708Z,15.88
2019-05-15T13:50:24.812Z,15.48
2019-05-15T13:51:24.666Z,16.47
2019-05-15T13:52:24.656Z,14.97
2019-05-15T13:53:24.660Z,14.65
2019-05-15T13:54:24.626Z,14.25
2019-05-15T13:55:26.051Z,13.63
2019-05-15T13:56:24.706Z,14.31
2019-05-15T13:57:24.603Z,14.02
2019-05-15T13:58:24.582Z,14.42
2019-05-15T13:59:24.574Z,14.39
2019-05-15T14:00:24.569Z,14.20
2019-05-15T14:01:24.568Z,14.23
2019-05-15T14:02:24.529Z,14.93
2019-05-15T14:03:24.527Z,14.83
2019-05-15T14:04:24.546Z,15.12
2019-05-15T14:05:24.496Z,14.72
2019-05-15T14:06:24.501Z,15.20
2019-05-15T14:07:24.519Z,15.30
2019-05-15T14:08:24.460Z,14.79
2019-05-15T14:09:24.497Z,14.01
2019-05-15T14:10:24.451Z,14.01
2019-05-15T14:11:24.439Z,13.71
2019-05-15T14:12:24.430Z,14.40
2019-05-15T14:13:24.450Z,14.94
2019-05-15T14:14:24.405Z,15.56
2019-05-15T14:15:24.415Z,15.57
2019-05-15T14:16:24.401Z,15.75
2019-05-15T14:17:24.373Z,15.14
2019-05-15T14:18:24.363Z,14.73
2019-05-15T14:19:24.425Z,14.29
2019-05-15T14:20:24.334Z,14.81
2019-05-15T14:21:24.389Z,15.35
2019-05-15T14:22:24.345Z,14.97
2019-05-15T14:23:24.308Z,15.47
2019-05-15T14:24:24.287Z,16.55
2019-05-15T14:25:24.278Z,16.56
2019-05-15T14:26:24.306Z,16.88
2019-05-15T14:27:24.317Z,16.68
2019-05-15T14:28:24.268Z,17.17
2019-05-15T14:29:24.236Z,16.77
2019-05-15T14:30:24.225Z,15.95
2019-05-15T14:31:24.215Z,15.92
2019-05-15T14:32:35.424Z,15.61
2019-05-15T14:33:25.242Z,15.63
2019-05-15T14:34:24.176Z,15.94
2019-05-15T14:35:24.186Z,15.94
2019-05-15T14:36:24.155Z,15.70
2019-05-15T14:37:24.183Z,15.08
2019-05-15T14:38:24.135Z,14.97
2019-05-15T14:39:24.161Z,14.90
2019-05-15T14:40:24.132Z,15.52
2019-05-15T14:41:24.144Z,15.91
2019-05-15T14:42:24.106Z,15.61
2019-05-15T14:43:24.088Z,15.94
2019-05-15T14:44:24.095Z,16.22
2019-05-15T14:45:24.061Z,16.53
2019-05-15T14:46:24.094Z,16.86
2019-05-15T14:47:26.341Z,17.14
2019-05-15T14:48:24.025Z,16.96
2019-05-15T14:49:24.042Z,16.65
2019-05-15T14:50:24.013Z,16.96
2019-05-15T14:51:24.042Z,17.25
2019-05-15T14:52:24.022Z,17.86
2019-05-15T14:53:23.967Z,17.96
2019-05-15T14:54:23.977Z,17.07
2019-05-15T14:55:23.959Z,17.65
2019-05-15T14:56:23.960Z,17.35
2019-05-15T14:57:23.980Z,16.96
2019-05-15T14:58:23.922Z,16.03
2019-05-15T14:59:23.915Z,15.52
2019-05-15T15:00:28.623Z,15.28
2019-05-15T15:01:24.905Z,15.56
2019-05-15T15:02:23.896Z,14.75
2019-05-15T15:03:23.921Z,14.37
2019-05-15T15:04:23.876Z,15.67
2019-05-15T15:05:23.866Z,15.70
2019-05-15T15:06:23.840Z,15.81
2019-05-15T15:07:23.861Z,15.72
2019-05-15T15:08:25.344Z,15.69
2019-05-15T15:09:23.856Z,15.06
2019-05-15T15:10:23.801Z,15.15
2019-05-15T15:11:24.110Z,14.94
2019-05-15T15:12:23.772Z,14.76
2019-05-15T15:13:23.768Z,15.58
2019-05-15T15:14:23.804Z,15.50
2019-05-15T15:15:23.776Z,16.60
2019-05-15T15:16:23.739Z,16.22